createdAt,value
2019-04-28T00:01:17.485Z,11.20
2019-04-28T00:03:48.173Z,11.20
2019-04-28T00:06:18.870Z,11.10
2019-04-28T00:08:49.538Z,11.10
2019-04-28T00:11:21.660Z,11.00
2019-04-28T00:13:53.633Z,11.00
2019-04-28T00:16:24.684Z,10.90
2019-04-28T00:18:55.424Z,10.80
2019-04-28T00:21:57.196Z,10.80
2019-04-28T00:24:46.702Z,10.70
2019-04-28T00:27:18.355Z,10.60
2019-04-28T00:29:49.015Z,10.50
2019-04-28T00:32:20.938Z,10.50
2019-04-28T00:34:51.759Z,10.50
2019-04-28T00:37:29.642Z,10.50
2019-04-28T00:40:01.037Z,10.50
2019-04-28T00:42:31.826Z,10.30
2019-04-28T00:45:02.574Z,10.30
2019-04-28T00:47:33.329Z,10.20
2019-04-28T00:50:04.286Z,10.20
2019-04-28T00:52:34.971Z,10.20
2019-04-28T00:55:06.453Z,10.10
2019-04-28T00:57:37.146Z,10.00
2019-04-28T01:00:08.596Z,10.00
2019-04-28T01:02:43.334Z,10.00
2019-04-28T01:05:15.062Z,10.00
2019-04-28T01:07:45.682Z,9.90
2019-04-28T01:10:18.163Z,9.90
2019-04-28T01:12:50.865Z,9.80
2019-04-28T01:15:39.527Z,9.80
2019-04-28T01:18:17.361Z,9.70
2019-04-28T01:20:49.583Z,9.80
2019-04-28T01:23:20.367Z,9.70
2019-04-28T01:25:51.173Z,9.60
2019-04-28T01:28:21.781Z,9.60
2019-04-28T01:31:00.499Z,9.60
2019-04-28T01:33:40.676Z,9.60
2019-04-28T01:36:11.351Z,9.50
2019-04-28T01:38:42.190Z,9.50
2019-04-28T01:41:12.822Z,9.50
2019-04-28T01:43:43.482Z,9.40
2019-04-28T01:46:14.110Z,9.40
2019-04-28T01:48:45.132Z,9.30
2019-04-28T01:51:15.733Z,9.30
2019-04-28T01:53:46.435Z,9.30
2019-04-28T01:56:17.086Z,9.20
2019-04-28T01:58:47.877Z,9.20
2019-04-28T02:01:20.331Z,9.20
2019-04-28T02:03:51.050Z,9.20
2019-04-28T02:06:21.708Z,9.10
2019-04-28T02:08:52.378Z,9.00
2019-04-28T02:11:23.032Z,9.10
2019-04-28T02:13:53.659Z,9.00
2019-04-28T02:16:24.288Z,9.00
2019-04-28T02:18:54.929Z,9.00
2019-04-28T02:21:50.475Z,9.00
2019-04-28T02:24:33.368Z,9.00
2019-04-28T02:27:04.310Z,9.10
2019-04-28T02:29:35.376Z,9.00
2019-04-28T02:32:10.303Z,9.10
2019-04-28T02:34:41.084Z,9.10
2019-04-28T02:37:12.348Z,9.00
2019-04-28T02:39:43.343Z,9.00
2019-04-28T02:42:13.959Z,9.00
2019-04-28T02:44:44.617Z,9.00
2019-04-28T02:47:15.376Z,9.10
2019-04-28T02:49:52.880Z,9.10
2019-04-28T02:52:41.631Z,9.20
2019-04-28T02:55:12.713Z,9.30
2019-04-28T02:57:43.572Z,9.30
2019-04-28T03:00:14.696Z,9.40
2019-04-28T03:02:45.375Z,9.40
2019-04-28T03:05:17.508Z,9.40
2019-04-28T03:07:51.180Z,9.40
2019-04-28T03:10:21.609Z,9.50
2019-04-28T03:12:52.599Z,9.40
2019-04-28T03:15:23.290Z,9.40
2019-04-28T03:17:53.959Z,9.50
2019-04-28T03:20:25.055Z,9.50
2019-04-28T03:22:55.727Z,9.60
2019-04-28T03:25:42.625Z,9.50
2019-04-28T03:28:33.615Z,9.50
2019-04-28T03:32:01.181Z,9.50
2019-04-28T03:34:05.646Z,9.50
2019-04-28T03:36:36.338Z,9.50
2019-04-28T03:39:10.981Z,9.50
2019-04-28T03:41:41.075Z,9.50
2019-04-28T03:44:11.658Z,9.60
2019-04-28T03:46:48.041Z,9.60
2019-04-28T03:49:34.731Z,9.60
2019-04-28T03:52:07.077Z,9.70
2019-04-28T03:54:41.133Z,9.60
2019-04-28T03:57:14.043Z,9.60
2019-04-28T03:59:44.745Z,9.70
2019-04-28T04:02:15.737Z,9.70
2019-04-28T04:04:46.391Z,9.70
2019-04-28T04:07:17.082Z,9.70
2019-04-28T04:10:06.653Z,9.70
2019-04-28T04:12:56.199Z,9.70
2019-04-28T04:15:55.095Z,9.60
2019-04-28T04:18:35.405Z,9.70
2019-04-28T04:21:06.115Z,9.70
2019-04-28T04:23:36.763Z,9.80
2019-04-28T04:26:07.514Z,9.90
2019-04-28T04:28:38.297Z,10.00
2019-04-28T04:31:10.372Z,10.00
2019-04-28T04:33:41.872Z,10.00
2019-04-28T04:36:12.497Z,10.00
2019-04-28T04:38:46.247Z,9.90
2019-04-28T04:41:15.561Z,9.80
2019-04-28T04:43:46.177Z,9.80
2019-04-28T04:46:26.048Z,9.80
2019-04-28T04:48:56.652Z,9.70
2019-04-28T04:51:30.620Z,9.70
2019-04-28T04:54:01.408Z,9.60
2019-04-28T04:56:32.526Z,9.50
2019-04-28T04:59:03.181Z,9.50
2019-04-28T05:01:50.323Z,9.50
2019-04-28T05:04:31.363Z,9.50
2019-04-28T05:07:02.000Z,9.60
2019-04-28T05:09:33.132Z,9.40
2019-04-28T05:12:03.728Z,9.50
2019-04-28T05:14:34.352Z,9.30
2019-04-28T05:17:04.968Z,9.20
2019-04-28T05:19:35.810Z,9.20
2019-04-28T05:22:07.245Z,9.20
2019-04-28T05:24:46.127Z,9.20
2019-04-28T05:27:24.019Z,9.20
2019-04-28T05:29:51.355Z,9.20
2019-04-28T05:32:21.933Z,9.20
2019-04-28T05:34:52.946Z,9.20
2019-04-28T05:37:23.670Z,9.20
2019-04-28T05:39:54.322Z,9.10
2019-04-28T05:42:24.945Z,9.20
2019-04-28T05:44:55.623Z,9.30
2019-04-28T05:47:26.558Z,9.20
2019-04-28T05:50:16.088Z,9.20
2019-04-28T05:53:05.565Z,9.20
2019-04-28T05:55:44.760Z,9.20
2019-04-28T05:58:40.067Z,9.30
2019-04-28T06:01:24.518Z,9.30
2019-04-28T06:03:55.233Z,9.40
2019-04-28T06:06:30.299Z,9.50
2019-04-28T06:09:20.274Z,9.50
2019-04-28T06:11:51.033Z,9.50
2019-04-28T06:14:21.698Z,9.70
2019-04-28T06:17:04.129Z,9.70
2019-04-28T06:19:35.431Z,9.60
2019-04-28T06:22:06.298Z,9.70
2019-04-28T06:24:37.245Z,9.70
2019-04-28T06:27:07.924Z,9.60
2019-04-28T06:29:38.586Z,9.70
2019-04-28T06:32:09.213Z,9.80
2019-04-28T06:34:39.907Z,9.80
2019-04-28T06:37:11.274Z,9.70
2019-04-28T06:39:42.571Z,9.60
2019-04-28T06:42:13.365Z,9.70
2019-04-28T06:44:44.181Z,9.80
2019-04-28T06:47:16.735Z,9.80
2019-04-28T06:49:47.225Z,10.00
2019-04-28T06:52:17.826Z,10.10
2019-04-28T06:54:48.471Z,10.10
2019-04-28T06:57:19.139Z,10.30
2019-04-28T06:59:49.824Z,10.60
2019-04-28T07:02:20.446Z,10.60
2019-04-28T07:05:01.297Z,10.70
2019-04-28T07:07:24.162Z,11.00
2019-04-28T07:09:56.216Z,10.90
2019-04-28T07:12:26.923Z,10.80
2019-04-28T07:14:57.628Z,10.70
2019-04-28T07:17:28.251Z,10.60
2019-04-28T07:20:23.661Z,10.50
2019-04-28T07:22:56.111Z,10.70
2019-04-28T07:25:26.756Z,11.10
2019-04-28T07:27:57.408Z,10.90
2019-04-28T07:30:28.519Z,11.00
2019-04-28T07:32:59.233Z,11.20
2019-04-28T07:35:29.836Z,11.40
2019-04-28T07:38:00.572Z,11.50
2019-04-28T07:40:31.254Z,11.30
2019-04-28T07:43:02.932Z,10.80
2019-04-28T07:45:33.846Z,10.90
2019-04-28T07:48:04.535Z,10.90
2019-04-28T07:50:35.208Z,11.10
2019-04-28T07:53:14.395Z,11.30
2019-04-28T07:55:45.143Z,11.60
2019-04-28T07:58:15.865Z,11.30
2019-04-28T08:00:48.753Z,10.90
2019-04-28T08:03:19.330Z,10.90
2019-04-28T08:05:50.006Z,10.80
2019-04-28T08:08:20.807Z,10.80
2019-04-28T08:10:51.673Z,11.00
2019-04-28T08:13:22.306Z,11.00
2019-04-28T08:15:53.199Z,10.90
2019-04-28T08:18:23.821Z,11.00
2019-04-28T08:20:54.503Z,10.90
2019-04-28T08:23:26.208Z,10.80
2019-04-28T08:26:03.486Z,11.10
2019-04-28T08:28:34.203Z,11.00
2019-04-28T08:31:06.404Z,11.00
2019-04-28T08:34:01.347Z,11.10
2019-04-28T08:36:21.499Z,11.10
2019-04-28T08:38:52.108Z,11.10
2019-04-28T08:41:22.904Z,10.90
2019-04-28T08:43:53.503Z,11.20
2019-04-28T08:46:24.118Z,11.30
2019-04-28T08:48:54.727Z,11.40
2019-04-28T08:51:25.968Z,11.70
2019-04-28T08:53:56.668Z,12.00
2019-04-28T08:56:27.314Z,12.30
2019-04-28T08:58:57.980Z,12.00
2019-04-28T09:01:29.265Z,12.00
2019-04-28T09:03:59.931Z,11.90
2019-04-28T09:06:30.592Z,11.70
2019-04-28T09:09:01.256Z,11.40
2019-04-28T09:11:31.946Z,11.40
2019-04-28T09:14:02.588Z,11.50
2019-04-28T09:16:33.420Z,11.50
2019-04-28T09:19:04.176Z,11.70
2019-04-28T09:21:34.799Z,11.80
2019-04-28T09:24:05.665Z,11.70
2019-04-28T09:26:37.149Z,11.80
2019-04-28T09:29:07.824Z,11.80
2019-04-28T09:31:38.655Z,11.70
2019-04-28T09:34:10.237Z,11.60
2019-04-28T09:36:42.976Z,11.80
2019-04-28T09:39:16.937Z,11.90
2019-04-28T09:42:06.575Z,11.90
2019-04-28T09:44:37.226Z,11.90
2019-04-28T09:47:10.767Z,12.00
2019-04-28T09:49:41.382Z,12.30
2019-04-28T09:52:12.471Z,12.60
2019-04-28T09:54:43.849Z,12.80
2019-04-28T09:57:15.073Z,12.90
2019-04-28T09:59:46.166Z,12.80
2019-04-28T10:02:16.824Z,13.10
2019-04-28T10:04:48.308Z,12.90
2019-04-28T10:07:18.930Z,12.50
2019-04-28T10:09:49.730Z,12.30
2019-04-28T10:12:26.845Z,11.80
2019-04-28T10:14:52.747Z,11.80
2019-04-28T10:17:23.841Z,11.70
2019-04-28T10:19:54.485Z,11.70
2019-04-28T10:22:25.222Z,12.00
2019-04-28T10:24:55.861Z,12.10
2019-04-28T10:27:26.609Z,12.40
2019-04-28T10:29:57.477Z,12.70
2019-04-28T10:32:28.254Z,13.20
2019-04-28T10:34:59.121Z,13.40
2019-04-28T10:37:36.812Z,13.50
2019-04-28T10:40:14.666Z,13.30
2019-04-28T10:42:46.067Z,13.20
2019-04-28T10:45:20.082Z,13.20
2019-04-28T10:47:50.838Z,13.40
2019-04-28T10:50:21.532Z,13.20
2019-04-28T10:52:52.438Z,13.10
2019-04-28T10:55:23.087Z,13.00
2019-04-28T10:57:54.476Z,12.60
2019-04-28T11:00:27.939Z,12.30
2019-04-28T11:02:58.555Z,12.00
2019-04-28T11:05:34.785Z,11.80
2019-04-28T11:08:07.706Z,11.80
2019-04-28T11:10:38.359Z,11.60
2019-04-28T11:13:09.730Z,11.70
2019-04-28T11:15:41.234Z,11.90
2019-04-28T11:18:14.204Z,12.00
2019-04-28T11:20:44.919Z,12.40
2019-04-28T11:23:15.623Z,12.60
2019-04-28T11:25:46.268Z,12.90
2019-04-28T11:28:17.186Z,13.00
2019-04-28T11:30:48.382Z,13.20
2019-04-28T11:33:34.619Z,13.10
2019-04-28T11:36:05.593Z,13.50
2019-04-28T11:38:36.286Z,14.10
2019-04-28T11:41:07.205Z,14.20
2019-04-28T11:43:37.954Z,14.90
2019-04-28T11:46:10.667Z,15.10
2019-04-28T11:48:42.540Z,14.80
2019-04-28T11:51:13.186Z,14.70
2019-04-28T11:53:43.831Z,15.00
2019-04-28T11:56:14.538Z,15.20
2019-04-28T11:58:45.296Z,15.90
2019-04-28T12:01:18.116Z,16.30
2019-04-28T12:03:51.891Z,15.90
2019-04-28T12:06:22.703Z,15.90
2019-04-28T12:08:55.751Z,15.80
2019-04-28T12:11:30.343Z,16.00
2019-04-28T12:14:14.611Z,15.80
2019-04-28T12:17:16.065Z,15.50
2019-04-28T12:19:53.035Z,14.80
2019-04-28T12:22:23.649Z,14.40
2019-04-28T12:24:54.334Z,13.90
2019-04-28T12:27:25.000Z,14.00
2019-04-28T12:29:55.768Z,13.80
2019-04-28T12:32:26.446Z,13.80
2019-04-28T12:34:57.075Z,13.80
2019-04-28T12:37:27.793Z,14.00
2019-04-28T12:39:58.385Z,14.40
2019-04-28T12:42:29.008Z,14.90
2019-04-28T12:44:59.637Z,15.00
2019-04-28T12:47:30.293Z,15.40
2019-04-28T12:50:11.357Z,15.50
2019-04-28T12:52:42.004Z,15.70
2019-04-28T12:55:13.891Z,16.20
2019-04-28T12:57:46.496Z,16.30
2019-04-28T13:00:35.091Z,16.00
2019-04-28T13:03:27.107Z,16.20
2019-04-28T13:06:02.645Z,16.40
2019-04-28T13:08:31.240Z,16.50
2019-04-28T13:11:01.875Z,16.90
2019-04-28T13:13:32.532Z,17.00
2019-04-28T13:16:03.353Z,16.50
2019-04-28T13:18:35.738Z,16.20
2019-04-28T13:21:06.820Z,16.00
2019-04-28T13:23:47.348Z,15.90
2019-04-28T13:26:27.807Z,15.90
2019-04-28T13:29:03.682Z,15.60
2019-04-28T13:31:45.754Z,15.50
2019-04-28T13:34:24.182Z,15.80
2019-04-28T13:37:06.785Z,15.90
2019-04-28T13:39:56.935Z,15.70
2019-04-28T13:42:34.242Z,16.00
2019-04-28T13:45:13.900Z,16.10
2019-04-28T13:47:55.515Z,15.90
2019-04-28T13:50:34.582Z,15.80
2019-04-28T13:53:05.409Z,15.90
2019-04-28T13:55:50.014Z,15.60
2019-04-28T13:58:22.956Z,15.40
2019-04-28T14:01:24.714Z,14.90
2019-04-28T14:04:17.888Z,14.70
2019-04-28T14:06:51.796Z,14.80
2019-04-28T14:09:23.060Z,14.60
2019-04-28T14:11:53.737Z,14.40
2019-04-28T14:14:25.047Z,14.50
2019-04-28T14:16:55.731Z,14.90
2019-04-28T14:19:27.328Z,14.70
2019-04-28T14:21:57.978Z,14.50
2019-04-28T14:24:28.657Z,14.70
2019-04-28T14:26:59.377Z,14.50
2019-04-28T14:29:30.078Z,14.50
2019-04-28T14:32:01.183Z,14.70
2019-04-28T14:34:32.252Z,14.50
2019-04-28T14:37:03.398Z,14.50
2019-04-28T14:39:34.654Z,14.60
2019-04-28T14:42:05.962Z,14.60
2019-04-28T14:44:36.711Z,14.70
2019-04-28T14:47:07.524Z,14.60
2019-04-28T14:49:38.186Z,14.50
2019-04-28T14:52:09.397Z,14.10
2019-04-28T14:54:40.690Z,14.30
2019-04-28T14:57:11.428Z,14.50
2019-04-28T14:59:42.256Z,14.50
2019-04-28T15:02:19.934Z,14.40
2019-04-28T15:05:22.031Z,14.70
2019-04-28T15:08:23.645Z,14.70
2019-04-28T15:11:00.019Z,14.60
2019-04-28T15:13:30.849Z,14.40
2019-04-28T15:16:02.210Z,14.00
2019-04-28T15:18:33.207Z,13.80
2019-04-28T15:21:03.927Z,13.80
2019-04-28T15:23:34.621Z,13.50
2019-04-28T15:26:05.327Z,13.60
2019-04-28T15:28:35.945Z,13.80
2019-04-28T15:31:06.706Z,13.80
2019-04-28T15:33:37.564Z,13.90
2019-04-28T15:36:08.275Z,13.90
2019-04-28T15:38:38.997Z,14.00
2019-04-28T15:41:20.985Z,14.00
2019-04-28T15:43:42.185Z,14.00
2019-04-28T15:46:14.160Z,14.20
2019-04-28T15:48:45.246Z,14.10
2019-04-28T15:51:15.989Z,14.00
2019-04-28T15:53:49.248Z,13.70
2019-04-28T15:56:29.133Z,13.80
2019-04-28T15:58:59.807Z,13.80
2019-04-28T16:01:31.082Z,13.80
2019-04-28T16:04:01.890Z,13.90
2019-04-28T16:06:32.560Z,13.70
2019-04-28T16:09:04.963Z,13.50
2019-04-28T16:11:35.626Z,13.40
2019-04-28T16:14:06.396Z,13.50
2019-04-28T16:16:37.343Z,13.40
2019-04-28T16:19:10.400Z,13.50
2019-04-28T16:21:41.594Z,13.50
2019-04-28T16:24:12.356Z,13.50
2019-04-28T16:26:43.048Z,13.60
2019-04-28T16:29:13.858Z,13.60
2019-04-28T16:31:44.767Z,13.40
2019-04-28T16:34:15.943Z,13.50
2019-04-28T16:36:46.768Z,13.40
2019-04-28T16:39:17.723Z,13.40
2019-04-28T16:41:55.721Z,13.40
2019-04-28T16:44:35.033Z,13.40
2019-04-28T16:47:05.755Z,13.40
2019-04-28T16:49:37.309Z,13.30
2019-04-28T16:52:08.176Z,13.30
2019-04-28T16:54:39.203Z,13.20
2019-04-28T16:57:31.906Z,13.10
2019-04-28T17:00:21.534Z,13.20
2019-04-28T17:02:53.604Z,13.10
2019-04-28T17:05:24.251Z,13.10
2019-04-28T17:07:54.896Z,13.10
2019-04-28T17:10:25.549Z,13.00
2019-04-28T17:12:56.337Z,13.00
2019-04-28T17:15:30.156Z,12.90
2019-04-28T17:17:59.493Z,12.90
2019-04-28T17:20:30.849Z,12.70
2019-04-28T17:23:01.482Z,12.80
2019-04-28T17:25:32.580Z,12.80
2019-04-28T17:28:04.646Z,12.80
2019-04-28T17:30:35.339Z,12.80
2019-04-28T17:33:06.044Z,12.80
2019-04-28T17:35:37.073Z,12.80
2019-04-28T17:38:07.797Z,12.80
2019-04-28T17:40:38.477Z,12.60
2019-04-28T17:43:11.411Z,12.50
2019-04-28T17:45:42.651Z,12.40
2019-04-28T17:48:19.295Z,12.30
2019-04-28T17:50:49.972Z,12.40
2019-04-28T17:53:20.716Z,12.30
2019-04-28T17:55:51.488Z,12.20
2019-04-28T17:58:22.199Z,12.20
2019-04-28T18:01:23.758Z,12.10
2019-04-28T18:04:17.056Z,12.20
2019-04-28T18:06:52.871Z,12.10
2019-04-28T18:09:23.607Z,12.00
2019-04-28T18:11:54.319Z,12.00
2019-04-28T18:14:25.060Z,12.00
2019-04-28T18:17:13.600Z,11.90
2019-04-28T18:19:44.333Z,11.90
2019-04-28T18:22:15.210Z,11.90
2019-04-28T18:24:45.970Z,11.90
2019-04-28T18:27:16.619Z,11.80
2019-04-28T18:29:47.318Z,11.90
2019-04-28T18:32:29.948Z,11.80
2019-04-28T18:35:12.384Z,11.80
2019-04-28T18:38:07.831Z,11.80
2019-04-28T18:40:52.338Z,11.80
2019-04-28T18:43:47.884Z,11.70
2019-04-28T18:46:23.173Z,11.70
2019-04-28T18:48:53.954Z,11.70
2019-04-28T18:51:24.614Z,11.70
2019-04-28T18:53:55.324Z,11.70
2019-04-28T18:56:26.148Z,11.70
2019-04-28T18:58:56.811Z,11.70
2019-04-28T19:01:49.473Z,11.70
2019-04-28T19:04:20.786Z,11.70
2019-04-28T19:07:04.422Z,11.70
2019-04-28T19:09:47.170Z,11.60
2019-04-28T19:12:35.103Z,11.50
2019-04-28T19:15:33.120Z,11.60
2019-04-28T19:18:18.443Z,11.60
2019-04-28T19:20:52.633Z,11.50
2019-04-28T19:23:34.236Z,11.60
2019-04-28T19:26:18.466Z,11.60
2019-04-28T19:28:57.101Z,11.60
2019-04-28T19:31:29.553Z,11.60
2019-04-28T19:34:01.769Z,11.50
2019-04-28T19:36:39.650Z,11.50
2019-04-28T19:39:21.581Z,11.50
2019-04-28T19:41:54.137Z,11.60
2019-04-28T19:44:25.258Z,11.60
2019-04-28T19:46:56.351Z,11.50
2019-04-28T19:49:27.043Z,11.60
2019-04-28T19:51:57.672Z,11.60
2019-04-28T19:54:32.145Z,11.50
2019-04-28T19:57:33.630Z,11.50
2019-04-28T20:00:32.034Z,11.60
2019-04-28T20:03:19.531Z,11.50
2019-04-28T20:06:04.701Z,11.60
2019-04-28T20:08:45.534Z,11.50
2019-04-28T20:11:16.640Z,11.50
2019-04-28T20:13:47.785Z,11.60
2019-04-28T20:16:18.775Z,11.60
2019-04-28T20:18:49.685Z,11.60
2019-04-28T20:21:20.468Z,11.60
2019-04-28T20:23:51.214Z,11.50
2019-04-28T20:26:23.216Z,11.50
2019-04-28T20:28:53.922Z,11.40
2019-04-28T20:31:24.754Z,11.50
2019-04-28T20:33:55.483Z,11.40
2019-04-28T20:36:50.916Z,11.40
2019-04-28T20:39:30.567Z,11.40
2019-04-28T20:42:18.883Z,11.40
2019-04-28T20:44:50.282Z,11.40
2019-04-28T20:47:20.965Z,11.60
2019-04-28T20:49:51.656Z,11.50
2019-04-28T20:52:22.432Z,11.50
2019-04-28T20:54:53.206Z,11.40
2019-04-28T20:57:24.003Z,11.50
2019-04-28T20:59:55.705Z,11.60
2019-04-28T21:02:26.864Z,11.50
2019-04-28T21:04:57.521Z,11.50
2019-04-28T21:07:28.154Z,11.40
2019-04-28T21:09:58.872Z,11.40
2019-04-28T21:12:29.522Z,11.40
2019-04-28T21:15:00.830Z,11.40
2019-04-28T21:17:32.128Z,11.40
2019-04-28T21:20:02.792Z,11.30
2019-04-28T21:22:33.649Z,11.40
2019-04-28T21:25:04.430Z,11.40
2019-04-28T21:27:35.785Z,11.40
2019-04-28T21:30:08.107Z,11.40
2019-04-28T21:32:38.779Z,11.40
2019-04-28T21:35:11.029Z,11.40
2019-04-28T21:37:41.815Z,11.40
2019-04-28T21:40:15.207Z,11.50
2019-04-28T21:43:13.848Z,11.50
2019-04-28T21:46:12.591Z,11.50
2019-04-28T21:49:03.895Z,11.50
2019-04-28T21:51:34.567Z,11.50
2019-04-28T21:54:05.190Z,11.50
2019-04-28T21:56:35.851Z,11.50
2019-04-28T21:59:06.479Z,11.40
2019-04-28T22:01:37.243Z,11.40
2019-04-28T22:04:08.098Z,11.40
2019-04-28T22:06:39.931Z,11.30
2019-04-28T22:09:10.900Z,11.30
2019-04-28T22:11:41.555Z,11.30
2019-04-28T22:14:12.297Z,11.20
2019-04-28T22:16:42.961Z,11.30
2019-04-28T22:19:14.106Z,11.20
2019-04-28T22:21:44.828Z,11.30
2019-04-28T22:24:38.888Z,11.30
2019-04-28T22:27:12.159Z,11.20
2019-04-28T22:29:42.807Z,11.30
2019-04-28T22:32:13.530Z,11.30
2019-04-28T22:34:44.229Z,11.30
2019-04-28T22:37:15.838Z,11.20
2019-04-28T22:39:47.146Z,11.20
2019-04-28T22:42:17.958Z,11.20
2019-04-28T22:44:48.657Z,11.20
2019-04-28T22:47:19.269Z,11.30
2019-04-28T22:49:49.915Z,11.20
2019-04-28T22:52:20.810Z,11.20
2019-04-28T22:55:10.578Z,11.10
2019-04-28T22:57:55.111Z,11.10
2019-04-28T23:00:45.778Z,11.10
2019-04-28T23:03:26.973Z,11.00
2019-04-28T23:05:57.721Z,11.00
2019-04-28T23:08:28.606Z,11.00
2019-04-28T23:10:59.243Z,10.90
2019-04-28T23:13:29.969Z,10.80
2019-04-28T23:16:05.156Z,10.80
2019-04-28T23:18:35.862Z,10.80
2019-04-28T23:21:14.326Z,10.80
2019-04-28T23:23:44.939Z,10.70
2019-04-28T23:26:15.595Z,10.70
2019-04-28T23:28:46.212Z,10.70
2019-04-28T23:31:17.062Z,10.60
2019-04-28T23:33:47.774Z,10.60
2019-04-28T23:36:18.410Z,10.60
2019-04-28T23:38:49.076Z,10.50
2019-04-28T23:41:42.861Z,10.50
2019-04-28T23:44:13.490Z,10.50
2019-04-28T23:47:02.962Z,10.50
2019-04-28T23:49:33.592Z,10.40
2019-04-28T23:52:21.980Z,10.40
2019-04-28T23:54:54.240Z,10.40
2019-04-28T23:57:24.842Z,10.40
2019-04-28T23:59:56.082Z,10.30
